sensor_id;sensor_type;location;lat;lon;timestamp;P1;durP1;ratioP1;P2;durP2;ratioP2
48122;SDS011;33907;47.426;18.906;2023-03-16T00:02:19;11.07;;;5.30;;
48122;SDS011;33907;47.426;18.906;2023-03-16T00:04:46;10.43;;;5.43;;
48122;SDS011;33907;47.426;18.906;2023-03-16T00:07:14;12.15;;;5.68;;
48122;SDS011;33907;47.426;18.906;2023-03-16T00:09:41;12.07;;;5.57;;
48122;SDS011;33907;47.426;18.906;2023-03-16T00:12:16;10.55;;;4.95;;
48122;SDS011;33907;47.426;18.906;2023-03-16T00:14:46;9.75;;;4.90;;
48122;SDS011;33907;47.426;18.906;2023-03-16T00:17:16;10.48;;;5.10;;
48122;SDS011;33907;47.426;18.906;2023-03-16T00:19:49;10.18;;;5.10;;
48122;SDS011;33907;47.426;18.906;2023-03-16T00:24:55;11.35;;;5.78;;
48122;SDS011;33907;47.426;18.906;2023-03-16T00:27:23;14.85;;;5.55;;
48122;SDS011;33907;47.426;18.906;2023-03-16T00:29:52;10.55;;;4.85;;
48122;SDS011;33907;47.426;18.906;2023-03-16T00:32:25;11.05;;;5.68;;
48122;SDS011;33907;47.426;18.906;2023-03-16T00:34:54;13.27;;;5.85;;
48122;SDS011;33907;47.426;18.906;2023-03-16T00:37:22;12.93;;;5.35;;
48122;SDS011;33907;47.426;18.906;2023-03-16T00:39:51;16.25;;;6.75;;
48122;SDS011;33907;47.426;18.906;2023-03-16T00:42:23;11.68;;;4.85;;
48122;SDS011;33907;47.426;18.906;2023-03-16T00:44:54;11.85;;;5.45;;
48122;SDS011;33907;47.426;18.906;2023-03-16T00:47:24;12.90;;;5.28;;
48122;SDS011;33907;47.426;18.906;2023-03-16T00:49:55;11.70;;;5.85;;
48122;SDS011;33907;47.426;18.906;2023-03-16T00:52:22;11.77;;;5.40;;
48122;SDS011;33907;47.426;18.906;2023-03-16T00:54:50;14.15;;;5.12;;
48122;SDS011;33907;47.426;18.906;2023-03-16T00:57:20;13.52;;;5.68;;
48122;SDS011;33907;47.426;18.906;2023-03-16T00:59:49;11.15;;;5.53;;
48122;SDS011;33907;47.426;18.906;2023-03-16T01:02:17;17.67;;;5.35;;
48122;SDS011;33907;47.426;18.906;2023-03-16T01:04:48;12.32;;;5.95;;
48122;SDS011;33907;47.426;18.906;2023-03-16T01:07:15;12.93;;;6.03;;
48122;SDS011;33907;47.426;18.906;2023-03-16T01:09:43;11.63;;;5.20;;
48122;SDS011;33907;47.426;18.906;2023-03-16T01:12:12;11.00;;;6.03;;
48122;SDS011;33907;47.426;18.906;2023-03-16T01:14:43;12.18;;;5.60;;
48122;SDS011;33907;47.426;18.906;2023-03-16T01:17:15;15.30;;;6.22;;
48122;SDS011;33907;47.426;18.906;2023-03-16T01:19:43;12.30;;;6.20;;
48122;SDS011;33907;47.426;18.906;2023-03-16T01:22:12;13.00;;;5.75;;
48122;SDS011;33907;47.426;18.906;2023-03-16T01:24:40;11.98;;;6.47;;
48122;SDS011;33907;47.426;18.906;2023-03-16T01:27:08;12.70;;;5.47;;
48122;SDS011;33907;47.426;18.906;2023-03-16T01:29:36;13.70;;;5.62;;
48122;SDS011;33907;47.426;18.906;2023-03-16T01:32:05;15.88;;;7.35;;
48122;SDS011;33907;47.426;18.906;2023-03-16T01:34:33;13.20;;;6.03;;
48122;SDS011;33907;47.426;18.906;2023-03-16T01:37:01;9.63;;;5.97;;
48122;SDS011;33907;47.426;18.906;2023-03-16T01:39:29;11.75;;;6.10;;
48122;SDS011;33907;47.426;18.906;2023-03-16T01:41:56;13.20;;;5.97;;
48122;SDS011;33907;47.426;18.906;2023-03-16T01:44:24;14.10;;;5.85;;
48122;SDS011;33907;47.426;18.906;2023-03-16T01:47:02;11.23;;;5.85;;
48122;SDS011;33907;47.426;18.906;2023-03-16T01:49:33;12.15;;;5.20;;
48122;SDS011;33907;47.426;18.906;2023-03-16T01:57:12;11.15;;;5.32;;
48122;SDS011;33907;47.426;18.906;2023-03-16T01:59:43;12.57;;;5.82;;
48122;SDS011;33907;47.426;18.906;2023-03-16T02:02:40;10.77;;;5.75;;
48122;SDS011;33907;47.426;18.906;2023-03-16T02:05:12;15.82;;;6.03;;
48122;SDS011;33907;47.426;18.906;2023-03-16T02:07:47;10.38;;;5.12;;
48122;SDS011;33907;47.426;18.906;2023-03-16T02:10:17;12.88;;;5.50;;
48122;SDS011;33907;47.426;18.906;2023-03-16T02:12:45;13.25;;;6.18;;
48122;SDS011;33907;47.426;18.906;2023-03-16T02:15:13;12.10;;;6.07;;
48122;SDS011;33907;47.426;18.906;2023-03-16T02:17:42;11.48;;;6.15;;
48122;SDS011;33907;47.426;18.906;2023-03-16T02:22:46;9.05;;;5.80;;
48122;SDS011;33907;47.426;18.906;2023-03-16T02:25:16;10.57;;;6.12;;
48122;SDS011;33907;47.426;18.906;2023-03-16T02:30:44;9.90;;;5.70;;
48122;SDS011;33907;47.426;18.906;2023-03-16T02:33:13;12.50;;;6.03;;
48122;SDS011;33907;47.426;18.906;2023-03-16T02:35:42;13.95;;;6.05;;
48122;SDS011;33907;47.426;18.906;2023-03-16T02:38:10;11.43;;;6.37;;
48122;SDS011;33907;47.426;18.906;2023-03-16T02:40:39;11.82;;;5.90;;
48122;SDS011;33907;47.426;18.906;2023-03-16T02:43:11;11.93;;;6.40;;
48122;SDS011;33907;47.426;18.906;2023-03-16T02:45:47;9.18;;;5.45;;
48122;SDS011;33907;47.426;18.906;2023-03-16T02:48:40;10.85;;;7.00;;
48122;SDS011;33907;47.426;18.906;2023-03-16T02:51:13;12.93;;;6.05;;
48122;SDS011;33907;47.426;18.906;2023-03-16T02:53:41;12.37;;;6.22;;
48122;SDS011;33907;47.426;18.906;2023-03-16T02:56:08;13.82;;;5.85;;
48122;SDS011;33907;47.426;18.906;2023-03-16T02:58:36;13.50;;;6.55;;
48122;SDS011;33907;47.426;18.906;2023-03-16T03:01:04;14.30;;;6.75;;
48122;SDS011;33907;47.426;18.906;2023-03-16T03:03:32;11.50;;;6.62;;
48122;SDS011;33907;47.426;18.906;2023-03-16T03:06:00;11.05;;;6.30;;
48122;SDS011;33907;47.426;18.906;2023-03-16T03:08:29;10.32;;;6.32;;
48122;SDS011;33907;47.426;18.906;2023-03-16T03:10:58;10.23;;;6.45;;
48122;SDS011;33907;47.426;18.906;2023-03-16T03:13:26;13.70;;;7.03;;
48122;SDS011;33907;47.426;18.906;2023-03-16T03:15:54;12.07;;;6.15;;
48122;SDS011;33907;47.426;18.906;2023-03-16T03:18:21;13.62;;;7.10;;
48122;SDS011;33907;47.426;18.906;2023-03-16T03:20:52;14.95;;;7.28;;
48122;SDS011;33907;47.426;18.906;2023-03-16T03:23:19;12.37;;;6.62;;
48122;SDS011;33907;47.426;18.906;2023-03-16T03:25:47;13.55;;;6.78;;
48122;SDS011;33907;47.426;18.906;2023-03-16T03:28:15;12.93;;;6.82;;
48122;SDS011;33907;47.426;18.906;2023-03-16T03:30:43;16.42;;;6.43;;
48122;SDS011;33907;47.426;18.906;2023-03-16T03:33:11;15.30;;;7.28;;
48122;SDS011;33907;47.426;18.906;2023-03-16T03:35:39;12.05;;;7.57;;
48122;SDS011;33907;47.426;18.906;2023-03-16T03:38:08;13.80;;;6.57;;
48122;SDS011;33907;47.426;18.906;2023-03-16T03:40:36;12.18;;;6.25;;
48122;SDS011;33907;47.426;18.906;2023-03-16T03:43:04;14.10;;;7.07;;
48122;SDS011;33907;47.426;18.906;2023-03-16T03:45:33;15.23;;;6.70;;
48122;SDS011;33907;47.426;18.906;2023-03-16T03:48:00;16.87;;;7.50;;
48122;SDS011;33907;47.426;18.906;2023-03-16T03:50:28;13.38;;;7.30;;
48122;SDS011;33907;47.426;18.906;2023-03-16T03:52:56;15.43;;;7.12;;
48122;SDS011;33907;47.426;18.906;2023-03-16T03:55:24;18.62;;;8.02;;
48122;SDS011;33907;47.426;18.906;2023-03-16T03:57:52;15.23;;;6.50;;
48122;SDS011;33907;47.426;18.906;2023-03-16T04:00:19;15.60;;;7.50;;
48122;SDS011;33907;47.426;18.906;2023-03-16T04:02:48;17.75;;;7.53;;
48122;SDS011;33907;47.426;18.906;2023-03-16T04:05:16;14.25;;;7.22;;
48122;SDS011;33907;47.426;18.906;2023-03-16T04:07:44;14.45;;;7.32;;
48122;SDS011;33907;47.426;18.906;2023-03-16T04:10:12;14.30;;;7.07;;
48122;SDS011;33907;47.426;18.906;2023-03-16T04:12:40;15.90;;;7.22;;
48122;SDS011;33907;47.426;18.906;2023-03-16T04:15:08;13.05;;;7.50;;
48122;SDS011;33907;47.426;18.906;2023-03-16T04:17:38;15.63;;;8.10;;
48122;SDS011;33907;47.426;18.906;2023-03-16T04:20:07;14.85;;;8.45;;
48122;SDS011;33907;47.426;18.906;2023-03-16T04:22:41;15.07;;;8.18;;
48122;SDS011;33907;47.426;18.906;2023-03-16T04:25:09;17.12;;;8.50;;
48122;SDS011;33907;47.426;18.906;2023-03-16T04:27:37;17.05;;;8.00;;
48122;SDS011;33907;47.426;18.906;2023-03-16T04:30:08;14.57;;;7.65;;
48122;SDS011;33907;47.426;18.906;2023-03-16T04:32:39;15.98;;;8.30;;
48122;SDS011;33907;47.426;18.906;2023-03-16T04:35:09;13.77;;;7.78;;
48122;SDS011;33907;47.426;18.906;2023-03-16T04:37:37;19.83;;;8.13;;
48122;SDS011;33907;47.426;18.906;2023-03-16T04:40:05;17.92;;;7.85;;
48122;SDS011;33907;47.426;18.906;2023-03-16T04:42:43;16.15;;;8.65;;
48122;SDS011;33907;47.426;18.906;2023-03-16T04:45:13;13.93;;;9.05;;
48122;SDS011;33907;47.426;18.906;2023-03-16T04:47:42;16.20;;;8.60;;
48122;SDS011;33907;47.426;18.906;2023-03-16T04:50:10;25.25;;;8.65;;
48122;SDS011;33907;47.426;18.906;2023-03-16T04:52:39;16.20;;;8.40;;
48122;SDS011;33907;47.426;18.906;2023-03-16T04:55:07;17.62;;;9.48;;
48122;SDS011;33907;47.426;18.906;2023-03-16T04:57:36;16.62;;;8.73;;
48122;SDS011;33907;47.426;18.906;2023-03-16T05:00:04;16.50;;;8.88;;
48122;SDS011;33907;47.426;18.906;2023-03-16T05:02:38;17.87;;;9.23;;
48122;SDS011;33907;47.426;18.906;2023-03-16T05:05:06;15.00;;;8.00;;
48122;SDS011;33907;47.426;18.906;2023-03-16T05:07:34;17.52;;;9.07;;
48122;SDS011;33907;47.426;18.906;2023-03-16T05:10:02;13.50;;;8.30;;
48122;SDS011;33907;47.426;18.906;2023-03-16T05:12:30;17.52;;;8.27;;
48122;SDS011;33907;47.426;18.906;2023-03-16T05:14:58;14.80;;;8.65;;
48122;SDS011;33907;47.426;18.906;2023-03-16T05:17:26;16.55;;;9.10;;
48122;SDS011;33907;47.426;18.906;2023-03-16T05:19:54;16.45;;;9.23;;
48122;SDS011;33907;47.426;18.906;2023-03-16T05:22:21;16.65;;;8.52;;
48122;SDS011;33907;47.426;18.906;2023-03-16T05:24:50;14.35;;;8.93;;
48122;SDS011;33907;47.426;18.906;2023-03-16T05:27:19;17.73;;;8.95;;
48122;SDS011;33907;47.426;18.906;2023-03-16T05:29:47;17.87;;;9.57;;
48122;SDS011;33907;47.426;18.906;2023-03-16T05:32:15;15.48;;;8.63;;
48122;SDS011;33907;47.426;18.906;2023-03-16T05:34:44;17.27;;;8.50;;
48122;SDS011;33907;47.426;18.906;2023-03-16T05:37:12;15.63;;;9.65;;
48122;SDS011;33907;47.426;18.906;2023-03-16T05:39:39;18.65;;;9.15;;
48122;SDS011;33907;47.426;18.906;2023-03-16T05:42:07;14.68;;;9.05;;
48122;SDS011;33907;47.426;18.906;2023-03-16T05:44:36;14.90;;;8.75;;
48122;SDS011;33907;47.426;18.906;2023-03-16T05:47:03;15.80;;;9.50;;
48122;SDS011;33907;47.426;18.906;2023-03-16T05:49:32;15.50;;;8.80;;
48122;SDS011;33907;47.426;18.906;2023-03-16T05:52:00;20.12;;;9.43;;
48122;SDS011;33907;47.426;18.906;2023-03-16T05:54:28;16.73;;;9.15;;
48122;SDS011;33907;47.426;18.906;2023-03-16T05:56:56;16.40;;;9.02;;
48122;SDS011;33907;47.426;18.906;2023-03-16T05:59:24;15.57;;;8.70;;
48122;SDS011;33907;47.426;18.906;2023-03-16T06:01:52;17.70;;;9.48;;
48122;SDS011;33907;47.426;18.906;2023-03-16T06:04:20;14.77;;;8.93;;
48122;SDS011;33907;47.426;18.906;2023-03-16T06:06:48;13.93;;;8.93;;
48122;SDS011;33907;47.426;18.906;2023-03-16T06:09:15;16.05;;;8.65;;
48122;SDS011;33907;47.426;18.906;2023-03-16T06:11:43;16.52;;;8.80;;
48122;SDS011;33907;47.426;18.906;2023-03-16T06:14:13;17.12;;;8.77;;
48122;SDS011;33907;47.426;18.906;2023-03-16T06:16:40;19.42;;;8.82;;
48122;SDS011;33907;47.426;18.906;2023-03-16T06:19:09;17.35;;;9.05;;
48122;SDS011;33907;47.426;18.906;2023-03-16T06:21:37;18.70;;;8.68;;
48122;SDS011;33907;47.426;18.906;2023-03-16T06:24:06;15.45;;;8.70;;
48122;SDS011;33907;47.426;18.906;2023-03-16T06:26:35;18.42;;;9.55;;
48122;SDS011;33907;47.426;18.906;2023-03-16T06:29:03;19.23;;;8.90;;
48122;SDS011;33907;47.426;18.906;2023-03-16T06:31:32;16.62;;;8.70;;
48122;SDS011;33907;47.426;18.906;2023-03-16T06:34:01;19.67;;;9.23;;
48122;SDS011;33907;47.426;18.906;2023-03-16T06:36:29;16.37;;;8.32;;
48122;SDS011;33907;47.426;18.906;2023-03-16T06:38:57;19.77;;;9.82;;
48122;SDS011;33907;47.426;18.906;2023-03-16T06:41:25;16.37;;;8.82;;
48122;SDS011;33907;47.426;18.906;2023-03-16T06:43:52;16.02;;;9.60;;
48122;SDS011;33907;47.426;18.906;2023-03-16T06:46:20;15.52;;;8.65;;
48122;SDS011;33907;47.426;18.906;2023-03-16T06:48:48;14.65;;;8.95;;
48122;SDS011;33907;47.426;18.906;2023-03-16T06:51:15;16.08;;;9.05;;
48122;SDS011;33907;47.426;18.906;2023-03-16T06:53:44;17.75;;;9.00;;
48122;SDS011;33907;47.426;18.906;2023-03-16T06:56:11;17.95;;;9.55;;
48122;SDS011;33907;47.426;18.906;2023-03-16T06:58:39;15.07;;;9.18;;
48122;SDS011;33907;47.426;18.906;2023-03-16T07:01:07;14.93;;;9.15;;
48122;SDS011;33907;47.426;18.906;2023-03-16T07:03:35;16.48;;;9.00;;
48122;SDS011;33907;47.426;18.906;2023-03-16T07:06:03;15.52;;;9.15;;
48122;SDS011;33907;47.426;18.906;2023-03-16T07:08:32;15.98;;;9.30;;
48122;SDS011;33907;47.426;18.906;2023-03-16T07:10:59;14.18;;;8.95;;
48122;SDS011;33907;47.426;18.906;2023-03-16T07:13:28;15.23;;;10.05;;
48122;SDS011;33907;47.426;18.906;2023-03-16T07:15:56;16.25;;;9.20;;
48122;SDS011;33907;47.426;18.906;2023-03-16T07:18:24;19.08;;;9.80;;
48122;SDS011;33907;47.426;18.906;2023-03-16T07:20:53;16.55;;;9.23;;
48122;SDS011;33907;47.426;18.906;2023-03-16T07:23:22;18.55;;;10.02;;
48122;SDS011;33907;47.426;18.906;2023-03-16T07:25:51;18.80;;;10.18;;
48122;SDS011;33907;47.426;18.906;2023-03-16T07:28:19;15.38;;;9.60;;
48122;SDS011;33907;47.426;18.906;2023-03-16T07:30:47;17.80;;;9.73;;
48122;SDS011;33907;47.426;18.906;2023-03-16T07:33:31;14.30;;;9.02;;
48122;SDS011;33907;47.426;18.906;2023-03-16T07:36:01;15.75;;;9.80;;
48122;SDS011;33907;47.426;18.906;2023-03-16T07:38:32;15.60;;;9.32;;
48122;SDS011;33907;47.426;18.906;2023-03-16T07:41:01;13.52;;;8.93;;
48122;SDS011;33907;47.426;18.906;2023-03-16T07:43:28;15.57;;;9.23;;
48122;SDS011;33907;47.426;18.906;2023-03-16T07:45:56;17.80;;;9.80;;
48122;SDS011;33907;47.426;18.906;2023-03-16T07:48:24;14.00;;;8.80;;
48122;SDS011;33907;47.426;18.906;2023-03-16T07:50:52;15.25;;;9.35;;
48122;SDS011;33907;47.426;18.906;2023-03-16T07:53:21;20.17;;;9.43;;
48122;SDS011;33907;47.426;18.906;2023-03-16T07:55:49;16.23;;;8.95;;
48122;SDS011;33907;47.426;18.906;2023-03-16T07:58:17;16.95;;;9.60;;
48122;SDS011;33907;47.426;18.906;2023-03-16T08:00:44;15.65;;;9.88;;
48122;SDS011;33907;47.426;18.906;2023-03-16T08:03:12;15.32;;;9.23;;
48122;SDS011;33907;47.426;18.906;2023-03-16T08:05:40;14.20;;;9.20;;
48122;SDS011;33907;47.426;18.906;2023-03-16T08:08:07;15.73;;;10.32;;
48122;SDS011;33907;47.426;18.906;2023-03-16T08:10:38;14.30;;;9.32;;
48122;SDS011;33907;47.426;18.906;2023-03-16T08:13:06;15.55;;;9.90;;
48122;SDS011;33907;47.426;18.906;2023-03-16T08:15:34;16.30;;;8.75;;
48122;SDS011;33907;47.426;18.906;2023-03-16T08:18:02;13.95;;;8.55;;
48122;SDS011;33907;47.426;18.906;2023-03-16T08:20:30;20.00;;;8.68;;
48122;SDS011;33907;47.426;18.906;2023-03-16T08:22:58;14.70;;;8.05;;
48122;SDS011;33907;47.426;18.906;2023-03-16T08:25:26;15.43;;;8.18;;
48122;SDS011;33907;47.426;18.906;2023-03-16T08:27:55;13.68;;;8.35;;
48122;SDS011;33907;47.426;18.906;2023-03-16T08:30:24;14.15;;;8.90;;
48122;SDS011;33907;47.426;18.906;2023-03-16T08:32:54;16.00;;;8.70;;
48122;SDS011;33907;47.426;18.906;2023-03-16T08:35:21;12.95;;;8.50;;
48122;SDS011;33907;47.426;18.906;2023-03-16T08:37:49;13.40;;;7.03;;
48122;SDS011;33907;47.426;18.906;2023-03-16T08:40:17;13.20;;;7.35;;
48122;SDS011;33907;47.426;18.906;2023-03-16T08:42:45;11.98;;;7.22;;
48122;SDS011;33907;47.426;18.906;2023-03-16T08:45:16;13.25;;;7.50;;
48122;SDS011;33907;47.426;18.906;2023-03-16T08:47:46;11.38;;;7.40;;
48122;SDS011;33907;47.426;18.906;2023-03-16T08:50:14;14.80;;;7.70;;
48122;SDS011;33907;47.426;18.906;2023-03-16T08:52:42;13.75;;;7.20;;
48122;SDS011;33907;47.426;18.906;2023-03-16T08:55:09;13.13;;;7.57;;
48122;SDS011;33907;47.426;18.906;2023-03-16T08:57:37;10.15;;;6.78;;
48122;SDS011;33907;47.426;18.906;2023-03-16T09:00:06;13.07;;;7.60;;
48122;SDS011;33907;47.426;18.906;2023-03-16T09:02:43;10.38;;;6.72;;
48122;SDS011;33907;47.426;18.906;2023-03-16T09:05:12;12.07;;;7.25;;
48122;SDS011;33907;47.426;18.906;2023-03-16T09:07:41;14.15;;;7.20;;
48122;SDS011;33907;47.426;18.906;2023-03-16T09:10:09;12.95;;;8.07;;
48122;SDS011;33907;47.426;18.906;2023-03-16T09:12:39;13.70;;;6.43;;
48122;SDS011;33907;47.426;18.906;2023-03-16T09:15:07;14.75;;;6.85;;
48122;SDS011;33907;47.426;18.906;2023-03-16T09:17:37;13.13;;;6.72;;
48122;SDS011;33907;47.426;18.906;2023-03-16T09:20:06;10.77;;;5.00;;
48122;SDS011;33907;47.426;18.906;2023-03-16T09:22:56;12.25;;;6.22;;
48122;SDS011;33907;47.426;18.906;2023-03-16T09:25:25;9.18;;;4.62;;
48122;SDS011;33907;47.426;18.906;2023-03-16T09:27:52;9.15;;;5.05;;
48122;SDS011;33907;47.426;18.906;2023-03-16T09:30:20;12.30;;;5.47;;
48122;SDS011;33907;47.426;18.906;2023-03-16T09:32:47;9.68;;;5.22;;
48122;SDS011;33907;47.426;18.906;2023-03-16T09:35:16;10.82;;;5.90;;
48122;SDS011;33907;47.426;18.906;2023-03-16T09:37:44;8.98;;;5.30;;
48122;SDS011;33907;47.426;18.906;2023-03-16T09:40:31;10.18;;;5.40;;
48122;SDS011;33907;47.426;18.906;2023-03-16T09:45:40;9.45;;;4.40;;
48122;SDS011;33907;47.426;18.906;2023-03-16T09:48:28;8.63;;;4.10;;
48122;SDS011;33907;47.426;18.906;2023-03-16T09:50:57;8.35;;;4.32;;
48122;SDS011;33907;47.426;18.906;2023-03-16T09:53:29;8.27;;;4.65;;
48122;SDS011;33907;47.426;18.906;2023-03-16T09:56:03;8.70;;;4.75;;
48122;SDS011;33907;47.426;18.906;2023-03-16T09:58:32;9.68;;;4.40;;
48122;SDS011;33907;47.426;18.906;2023-03-16T10:01:25;8.35;;;4.45;;
48122;SDS011;33907;47.426;18.906;2023-03-16T10:04:01;11.80;;;6.05;;
48122;SDS011;33907;47.426;18.906;2023-03-16T10:09:38;10.55;;;5.65;;
48122;SDS011;33907;47.426;18.906;2023-03-16T10:12:07;9.52;;;4.82;;
48122;SDS011;33907;47.426;18.906;2023-03-16T10:14:38;9.98;;;4.87;;
48122;SDS011;33907;47.426;18.906;2023-03-16T10:17:22;12.10;;;5.93;;
48122;SDS011;33907;47.426;18.906;2023-03-16T10:19:55;8.80;;;4.70;;
48122;SDS011;33907;47.426;18.906;2023-03-16T10:22:34;11.02;;;5.80;;
48122;SDS011;33907;47.426;18.906;2023-03-16T10:27:50;9.68;;;5.72;;
48122;SDS011;33907;47.426;18.906;2023-03-16T10:32:46;9.52;;;4.82;;
48122;SDS011;33907;47.426;18.906;2023-03-16T10:37:54;10.95;;;5.45;;
48122;SDS011;33907;47.426;18.906;2023-03-16T10:40:23;7.57;;;4.32;;
48122;SDS011;33907;47.426;18.906;2023-03-16T10:42:50;8.13;;;4.43;;
48122;SDS011;33907;47.426;18.906;2023-03-16T10:45:19;11.07;;;4.25;;
48122;SDS011;33907;47.426;18.906;2023-03-16T10:47:51;9.77;;;4.75;;
48122;SDS011;33907;47.426;18.906;2023-03-16T10:50:22;8.50;;;4.80;;
48122;SDS011;33907;47.426;18.906;2023-03-16T10:52:53;7.80;;;4.70;;
48122;SDS011;33907;47.426;18.906;2023-03-16T10:55:27;8.02;;;4.60;;
48122;SDS011;33907;47.426;18.906;2023-03-16T10:57:58;8.93;;;4.62;;
48122;SDS011;33907;47.426;18.906;2023-03-16T11:00:40;8.82;;;4.15;;
48122;SDS011;33907;47.426;18.906;2023-03-16T11:03:18;7.75;;;4.18;;
48122;SDS011;33907;47.426;18.906;2023-03-16T11:05:55;7.50;;;4.10;;
48122;SDS011;33907;47.426;18.906;2023-03-16T11:08:31;7.37;;;3.90;;
48122;SDS011;33907;47.426;18.906;2023-03-16T11:11:07;7.47;;;3.83;;
48122;SDS011;33907;47.426;18.906;2023-03-16T11:13:36;9.38;;;3.95;;
48122;SDS011;33907;47.426;18.906;2023-03-16T11:16:22;9.57;;;4.05;;
48122;SDS011;33907;47.426;18.906;2023-03-16T11:22:00;8.70;;;3.67;;
48122;SDS011;33907;47.426;18.906;2023-03-16T11:24:49;8.13;;;3.50;;
48122;SDS011;33907;47.426;18.906;2023-03-16T11:29:58;6.70;;;3.72;;
48122;SDS011;33907;47.426;18.906;2023-03-16T11:32:32;8.73;;;3.90;;
48122;SDS011;33907;47.426;18.906;2023-03-16T11:35:19;8.43;;;3.85;;
48122;SDS011;33907;47.426;18.906;2023-03-16T11:38:10;6.93;;;3.08;;
48122;SDS011;33907;47.426;18.906;2023-03-16T11:43:33;6.90;;;3.40;;
48122;SDS011;33907;47.426;18.906;2023-03-16T11:53:59;6.87;;;2.70;;
48122;SDS011;33907;47.426;18.906;2023-03-16T11:56:35;6.32;;;2.20;;
48122;SDS011;33907;47.426;18.906;2023-03-16T12:01:52;6.32;;;2.70;;
48122;SDS011;33907;47.426;18.906;2023-03-16T12:16:30;5.35;;;2.05;;
48122;SDS011;33907;47.426;18.906;2023-03-16T12:19:50;4.43;;;1.85;;
48122;SDS011;33907;47.426;18.906;2023-03-16T12:24:40;5.97;;;2.47;;
48122;SDS011;33907;47.426;18.906;2023-03-16T12:27:13;5.25;;;2.10;;
48122;SDS011;33907;47.426;18.906;2023-03-16T12:29:48;6.57;;;2.00;;
48122;SDS011;33907;47.426;18.906;2023-03-16T12:32:29;7.68;;;2.17;;
48122;SDS011;33907;47.426;18.906;2023-03-16T12:40:38;5.70;;;1.90;;
48122;SDS011;33907;47.426;18.906;2023-03-16T12:45:40;4.55;;;1.90;;
48122;SDS011;33907;47.426;18.906;2023-03-16T12:48:23;4.00;;;1.80;;
48122;SDS011;33907;47.426;18.906;2023-03-16T12:50:57;5.22;;;1.85;;
48122;SDS011;33907;47.426;18.906;2023-03-16T12:54:16;4.37;;;1.58;;
48122;SDS011;33907;47.426;18.906;2023-03-16T12:56:18;5.03;;;1.87;;
48122;SDS011;33907;47.426;18.906;2023-03-16T12:58:54;7.50;;;2.03;;
48122;SDS011;33907;47.426;18.906;2023-03-16T13:01:30;5.53;;;2.00;;
48122;SDS011;33907;47.426;18.906;2023-03-16T13:04:11;9.90;;;2.03;;
48122;SDS011;33907;47.426;18.906;2023-03-16T13:06:44;5.78;;;2.10;;
48122;SDS011;33907;47.426;18.906;2023-03-16T13:09:17;4.82;;;1.73;;
48122;SDS011;33907;47.426;18.906;2023-03-16T13:11:48;4.32;;;1.77;;
48122;SDS011;33907;47.426;18.906;2023-03-16T13:14:29;4.97;;;2.12;;
48122;SDS011;33907;47.426;18.906;2023-03-16T13:17:05;7.40;;;1.52;;
48122;SDS011;33907;47.426;18.906;2023-03-16T13:19:43;6.68;;;1.73;;
48122;SDS011;33907;47.426;18.906;2023-03-16T13:24:48;5.05;;;1.37;;
48122;SDS011;33907;47.426;18.906;2023-03-16T13:27:36;3.72;;;1.50;;
48122;SDS011;33907;47.426;18.906;2023-03-16T13:30:41;5.65;;;1.87;;
48122;SDS011;33907;47.426;18.906;2023-03-16T13:33:06;5.62;;;1.70;;
48122;SDS011;33907;47.426;18.906;2023-03-16T13:35:48;6.05;;;1.85;;
48122;SDS011;33907;47.426;18.906;2023-03-16T13:38:18;7.32;;;2.10;;
48122;SDS011;33907;47.426;18.906;2023-03-16T13:40:56;3.62;;;1.62;;
48122;SDS011;33907;47.426;18.906;2023-03-16T13:43:28;4.95;;;1.73;;
48122;SDS011;33907;47.426;18.906;2023-03-16T13:45:58;4.78;;;1.58;;
48122;SDS011;33907;47.426;18.906;2023-03-16T13:48:26;6.45;;;1.73;;
48122;SDS011;33907;47.426;18.906;2023-03-16T13:50:54;4.93;;;1.52;;
48122;SDS011;33907;47.426;18.906;2023-03-16T13:53:29;5.37;;;2.47;;
48122;SDS011;33907;47.426;18.906;2023-03-16T13:55:59;3.92;;;1.70;;
48122;SDS011;33907;47.426;18.906;2023-03-16T13:58:31;6.22;;;1.90;;
48122;SDS011;33907;47.426;18.906;2023-03-16T14:01:03;5.18;;;1.77;;
48122;SDS011;33907;47.426;18.906;2023-03-16T14:03:36;5.30;;;1.52;;
48122;SDS011;33907;47.426;18.906;2023-03-16T14:06:05;6.47;;;1.60;;
48122;SDS011;33907;47.426;18.906;2023-03-16T14:08:33;3.58;;;1.80;;
48122;SDS011;33907;47.426;18.906;2023-03-16T14:11:01;3.53;;;1.52;;
48122;SDS011;33907;47.426;18.906;2023-03-16T14:13:31;5.37;;;1.52;;
48122;SDS011;33907;47.426;18.906;2023-03-16T14:16:10;5.40;;;1.42;;
48122;SDS011;33907;47.426;18.906;2023-03-16T14:18:47;4.40;;;1.50;;
48122;SDS011;33907;47.426;18.906;2023-03-16T14:21:20;3.25;;;1.20;;
48122;SDS011;33907;47.426;18.906;2023-03-16T14:23:53;3.53;;;1.77;;
48122;SDS011;33907;47.426;18.906;2023-03-16T14:26:23;3.75;;;1.25;;
48122;SDS011;33907;47.426;18.906;2023-03-16T14:29:13;4.85;;;1.90;;
48122;SDS011;33907;47.426;18.906;2023-03-16T14:31:42;3.78;;;1.60;;
48122;SDS011;33907;47.426;18.906;2023-03-16T14:37:13;5.20;;;1.58;;
48122;SDS011;33907;47.426;18.906;2023-03-16T14:39:44;6.47;;;2.12;;
48122;SDS011;33907;47.426;18.906;2023-03-16T14:42:13;6.32;;;1.85;;
48122;SDS011;33907;47.426;18.906;2023-03-16T14:44:45;5.95;;;1.98;;
48122;SDS011;33907;47.426;18.906;2023-03-16T14:47:19;5.95;;;1.60;;
48122;SDS011;33907;47.426;18.906;2023-03-16T14:49:49;7.10;;;1.87;;
48122;SDS011;33907;47.426;18.906;2023-03-16T14:52:22;5.78;;;1.83;;
48122;SDS011;33907;47.426;18.906;2023-03-16T14:54:51;5.60;;;1.92;;
48122;SDS011;33907;47.426;18.906;2023-03-16T14:57:21;5.72;;;2.00;;
48122;SDS011;33907;47.426;18.906;2023-03-16T14:59:49;5.18;;;1.60;;
48122;SDS011;33907;47.426;18.906;2023-03-16T15:02:17;4.15;;;1.90;;
48122;SDS011;33907;47.426;18.906;2023-03-16T15:04:47;6.32;;;1.80;;
48122;SDS011;33907;47.426;18.906;2023-03-16T15:09:51;5.60;;;1.70;;
48122;SDS011;33907;47.426;18.906;2023-03-16T15:12:20;4.97;;;1.40;;
48122;SDS011;33907;47.426;18.906;2023-03-16T15:14:50;4.53;;;1.50;;
48122;SDS011;33907;47.426;18.906;2023-03-16T15:17:36;5.10;;;1.95;;
48122;SDS011;33907;47.426;18.906;2023-03-16T15:20:05;3.03;;;1.23;;
48122;SDS011;33907;47.426;18.906;2023-03-16T15:22:34;7.12;;;1.83;;
48122;SDS011;33907;47.426;18.906;2023-03-16T15:25:23;7.18;;;2.20;;
48122;SDS011;33907;47.426;18.906;2023-03-16T15:28:05;4.28;;;1.73;;
48122;SDS011;33907;47.426;18.906;2023-03-16T15:30:37;3.75;;;1.50;;
48122;SDS011;33907;47.426;18.906;2023-03-16T15:33:07;5.82;;;1.90;;
48122;SDS011;33907;47.426;18.906;2023-03-16T15:35:36;4.90;;;1.60;;
48122;SDS011;33907;47.426;18.906;2023-03-16T15:38:05;5.47;;;1.60;;
48122;SDS011;33907;47.426;18.906;2023-03-16T15:40:38;6.07;;;1.50;;
48122;SDS011;33907;47.426;18.906;2023-03-16T15:43:10;4.80;;;1.67;;
48122;SDS011;33907;47.426;18.906;2023-03-16T15:45:39;6.82;;;2.37;;
48122;SDS011;33907;47.426;18.906;2023-03-16T15:48:06;6.22;;;1.75;;
48122;SDS011;33907;47.426;18.906;2023-03-16T15:50:37;7.78;;;1.95;;
48122;SDS011;33907;47.426;18.906;2023-03-16T15:53:07;5.78;;;1.83;;
48122;SDS011;33907;47.426;18.906;2023-03-16T15:56:07;5.53;;;1.48;;
48122;SDS011;33907;47.426;18.906;2023-03-16T15:58:36;4.95;;;1.60;;
48122;SDS011;33907;47.426;18.906;2023-03-16T16:01:10;5.43;;;1.65;;
48122;SDS011;33907;47.426;18.906;2023-03-16T16:03:53;5.20;;;2.22;;
48122;SDS011;33907;47.426;18.906;2023-03-16T16:06:22;5.68;;;2.00;;